Time;durP1;ratioP1;P1;durP2;ratioP2;P2;SDS_P1;SDS_P2;PMS_P1;PMS_P2;Temp;Humidity;BMP_temperature;BMP_pressure;BME280_temperature;BME280_humidity;BME280_pressure;Samples;Min_cycle;Max_cycle;Signal;HPM_P1;HPM_P2
2021/10/23 00:01:56;;;;;;;10.38;3.00;;;;;;;7.15;78.04;100222.59;1611259;83;25880;-81
2021/10/23 00:04:23;;;;;;;5.08;3.22;;;;;;;7.16;78.22;100218.11;1656317;85;25767;-81
2021/10/23 00:06:50;;;;;;;5.00;3.17;;;;;;;7.16;78.40;100234.09;1652728;85;27559;-81
2021/10/23 00:09:17;;;;;;;6.30;3.30;;;;;;;7.17;78.16;100234.41;1655989;85;25871;-81
2021/10/23 00:11:44;;;;;;;6.53;2.72;;;;;;;7.16;77.91;100244.25;1634446;85;25334;-81
2021/10/23 00:14:11;;;;;;;3.60;2.20;;;;;;;7.18;77.98;100241.41;1647995;85;26180;-80
2021/10/23 00:16:39;;;;;;;4.72;2.87;;;;;;;7.17;78.17;100256.55;1669456;85;25966;-81
2021/10/23 00:19:06;;;;;;;6.85;2.80;;;;;;;7.15;78.05;100255.89;1653932;85;28476;-81
2021/10/23 00:21:33;;;;;;;3.90;2.40;;;;;;;7.15;77.77;100263.88;1632004;85;25773;-81
2021/10/23 00:24:01;;;;;;;8.25;2.87;;;;;;;7.17;77.61;100251.22;1673812;84;26638;-81
2021/10/23 00:26:28;;;;;;;7.00;3.02;;;;;;;7.17;77.60;100258.38;1679762;84;25881;-80
2021/10/23 00:28:55;;;;;;;4.37;2.83;;;;;;;7.17;77.53;100263.20;1652753;85;25847;-82
2021/10/23 00:31:22;;;;;;;5.10;2.47;;;;;;;7.17;77.48;100271.69;1641022;85;27683;-80
2021/10/23 00:33:49;;;;;;;6.58;3.08;;;;;;;7.18;77.54;100271.54;1633212;85;26546;-82
2021/10/23 00:36:16;;;;;;;3.30;2.50;;;;;;;7.20;77.42;100274.02;1670335;85;25896;-81
2021/10/23 00:38:43;;;;;;;4.05;3.25;;;;;;;7.20;77.34;100264.70;1649402;85;26537;-81
2021/10/23 00:41:10;;;;;;;5.72;2.60;;;;;;;7.19;77.27;100268.35;1627578;85;25359;-81
2021/10/23 00:43:40;;;;;;;4.42;2.77;;;;;;;7.18;77.53;100269.38;1626887;85;28128;-82
2021/10/23 00:46:08;;;;;;;3.33;3.02;;;;;;;7.18;77.32;100278.20;1677666;85;25858;-82
2021/10/23 00:48:35;;;;;;;6.55;3.12;;;;;;;7.18;77.33;100281.36;1647155;85;25795;-82
2021/10/23 00:51:02;;;;;;;7.45;3.33;;;;;;;7.18;77.21;100276.88;1626285;85;25980;-81
2021/10/23 00:53:29;;;;;;;5.97;3.12;;;;;;;7.20;77.46;100272.69;1648479;85;25856;-80
2021/10/23 00:55:56;;;;;;;5.40;2.92;;;;;;;7.20;77.17;100273.53;1673751;85;27541;-81
2021/10/23 00:58:23;;;;;;;6.78;2.83;;;;;;;7.21;77.25;100265.02;1647637;85;25847;-81
2021/10/23 01:00:50;;;;;;;5.33;3.00;;;;;;;7.20;77.02;100261.55;1625505;85;25872;-81
2021/10/23 01:03:17;;;;;;;6.12;3.37;;;;;;;7.18;76.92;100264.05;1647936;85;26469;-80
2021/10/23 01:05:44;;;;;;;8.30;3.27;;;;;;;7.17;76.79;100268.53;1648306;85;25849;-81
2021/10/23 01:08:13;;;;;;;4.90;3.10;;;;;;;7.16;76.98;100267.38;1629975;85;28222;-81
2021/10/23 01:10:41;;;;;;;5.90;4.05;;;;;;;7.14;76.99;100270.23;1645387;85;25353;-80
2021/10/23 01:13:08;;;;;;;6.12;3.10;;;;;;;7.13;76.85;100272.55;1673458;84;25937;-81
2021/10/23 01:15:36;;;;;;;4.22;2.75;;;;;;;7.12;76.79;100267.41;1671379;85;25849;-81
2021/10/23 01:18:07;;;;;;;8.78;3.17;;;;;;;7.14;76.63;100274.72;1647777;85;25910;-81
2021/10/23 01:20:34;;;;;;;;;;;;;;;7.13;76.45;100279.20;1629422;85;27515;-80
2021/10/23 01:23:02;;;;;;;5.60;3.20;;;;;;;7.10;76.47;100276.07;1640601;84;25925;-81
2021/10/23 01:25:30;;;;;;;9.90;3.67;;;;;;;7.06;76.67;100278.22;1626231;85;26605;-81
2021/10/23 01:28:01;;;;;;;5.12;3.47;;;;;;;7.06;76.59;100291.54;1623688;85;25849;-80
2021/10/23 01:30:29;;;;;;;4.95;3.15;;;;;;;7.07;76.76;100295.88;1647980;85;25388;-81
2021/10/23 01:32:59;;;;;;;4.67;2.70;;;;;;;7.07;77.03;100293.22;1673394;84;27466;-81
2021/10/23 01:35:27;;;;;;;5.45;2.83;;;;;;;7.09;76.89;100295.70;1626700;85;25810;-81
2021/10/23 01:37:55;;;;;;;6.83;3.22;;;;;;;7.08;77.05;100290.06;1648276;85;25928;-81
2021/10/23 01:40:35;;;;;;;5.90;2.50;;;;;;;7.09;77.03;100294.37;1622482;85;25892;-81
2021/10/23 01:43:03;;;;;;;4.87;2.52;;;;;;;7.08;77.38;100292.72;1626417;85;25836;-80
2021/10/23 01:45:31;;;;;;;7.33;2.98;;;;;;;7.03;77.05;100309.21;1623952;85;27663;-81
2021/10/23 01:47:59;;;;;;;4.53;2.45;;;;;;;7.02;77.18;100310.20;1651509;85;25820;-81
2021/10/23 01:50:28;;;;;;;3.92;2.15;;;;;;;7.03;77.29;100319.03;1635173;86;25831;-81
2021/10/23 01:52:56;;;;;;;6.92;2.45;;;;;;;7.01;76.92;100328.00;1647683;85;25841;-81
2021/10/23 01:55:23;;;;;;;3.62;2.00;;;;;;;7.00;77.10;100319.70;1648257;85;25859;-80
2021/10/23 01:57:51;;;;;;;4.12;2.17;;;;;;;6.98;77.03;100324.37;1670943;85;27492;-81
2021/10/23 02:00:19;;;;;;;4.53;2.33;;;;;;;6.96;76.91;100322.37;1673692;85;26024;-81
2021/10/23 02:02:46;;;;;;;4.10;1.82;;;;;;;6.94;76.95;100319.55;1591867;88;25913;-81
2021/10/23 02:05:13;;;;;;;5.00;2.22;;;;;;;6.93;76.88;100327.19;1626298;85;26605;-82
2021/10/23 02:07:40;;;;;;;3.65;2.00;;;;;;;6.90;76.97;100331.05;1670418;85;25758;-81
2021/10/23 02:10:09;;;;;;;6.55;2.20;;;;;;;6.87;76.94;100327.88;1673850;85;27590;-81
2021/10/23 02:12:37;;;;;;;3.80;2.08;;;;;;;6.84;76.69;100332.22;1625281;85;25732;-81
2021/10/23 02:15:05;;;;;;;5.45;2.17;;;;;;;6.79;76.61;100334.55;1648620;85;25831;-81
2021/10/23 02:17:33;;;;;;;3.65;2.20;;;;;;;6.76;76.56;100330.88;1648425;85;26646;-81
2021/10/23 02:20:02;;;;;;;3.37;1.90;;;;;;;6.72;76.70;100346.38;1673608;85;25792;-81
2021/10/23 02:22:29;;;;;;;6.53;2.10;;;;;;;6.68;76.65;100352.19;1625329;85;27389;-80
2021/10/23 02:24:56;;;;;;;7.87;2.62;;;;;;;6.67;76.70;100350.55;1647866;85;26007;-82
2021/10/23 02:27:23;;;;;;;9.45;3.45;;;;;;;6.66;76.57;100354.19;1670693;85;25909;-81
2021/10/23 02:29:50;;;;;;;3.55;2.17;;;;;;;6.61;76.59;100350.70;1673778;85;25831;-81
2021/10/23 02:32:17;;;;;;;8.13;2.75;;;;;;;6.59;76.76;100349.20;1603938;85;25988;-81
2021/10/23 02:34:44;;;;;;;6.75;2.30;;;;;;;6.56;76.75;100352.21;1649505;85;27586;-81
2021/10/23 02:37:11;;;;;;;7.35;2.60;;;;;;;6.53;76.81;100355.19;1670088;84;26296;-81
2021/10/23 02:39:38;;;;;;;6.58;2.67;;;;;;;6.50;76.99;100364.86;1669432;85;25833;-81
2021/10/23 02:42:05;;;;;;;5.30;2.02;;;;;;;6.48;76.69;100368.19;1607415;86;25988;-82
2021/10/23 02:44:33;;;;;;;5.47;2.00;;;;;;;6.48;76.98;100370.84;1627670;86;26561;-82
2021/10/23 02:47:01;;;;;;;4.20;1.85;;;;;;;6.46;77.00;100378.16;1638641;85;27685;-80
2021/10/23 02:49:29;;;;;;;5.33;1.87;;;;;;;6.46;76.99;100372.31;1651394;86;26033;-80
2021/10/23 02:51:56;;;;;;;6.60;2.58;;;;;;;6.47;77.29;100371.34;1615632;84;25400;-82
2021/10/23 02:54:23;;;;;;;3.30;1.85;;;;;;;6.47;77.25;100374.00;1638368;86;26013;-81
2021/10/23 02:56:50;;;;;;;6.90;2.65;;;;;;;6.46;77.28;100382.96;1663566;85;25786;-80
2021/10/23 02:59:17;;;;;;;5.78;2.12;;;;;;;6.46;77.14;100380.83;1663007;85;27459;-81
2021/10/23 03:01:45;;;;;;;7.55;2.80;;;;;;;6.44;77.13;100382.30;1616550;85;25933;-81
2021/10/23 03:04:12;;;;;;;6.87;2.40;;;;;;;6.41;77.49;100385.80;1611669;85;26381;-81
2021/10/23 03:06:43;;;;;;;5.25;2.35;;;;;;;6.39;77.24;100389.96;1640880;85;25525;-81
2021/10/23 03:09:08;;;;;;;6.03;2.12;;;;;;;6.37;77.39;100399.94;1659709;85;25863;-81
2021/10/23 03:11:35;;;;;;;6.83;2.22;;;;;;;6.36;77.77;100382.78;1615766;85;27433;-81
2021/10/23 03:14:02;;;;;;;13.28;2.42;;;;;;;6.34;77.45;100381.63;1640747;85;25830;-81
2021/10/23 03:16:29;;;;;;;9.38;3.15;;;;;;;6.34;77.45;100375.47;1638093;85;25873;-81
2021/10/23 03:18:56;;;;;;;5.75;2.90;;;;;;;6.33;77.33;100381.28;1660725;85;25836;-81
2021/10/23 03:21:23;;;;;;;5.30;2.05;;;;;;;6.31;77.76;100390.45;1596843;85;25884;-81
2021/10/23 03:23:50;;;;;;;5.95;2.40;;;;;;;6.29;77.63;100397.24;1637722;85;27572;-80
2021/10/23 03:26:18;;;;;;;5.75;2.40;;;;;;;6.29;77.70;100407.08;1602515;88;26030;-81
2021/10/23 03:28:47;;;;;;;9.73;2.70;;;;;;;6.28;77.75;100408.89;1640215;86;25811;-81
2021/10/23 03:31:14;;;;;;;9.85;2.40;;;;;;;6.29;78.05;100405.22;1607160;86;25866;-81
2021/10/23 03:33:41;;;;;;;3.67;2.12;;;;;;;6.31;78.06;100414.39;1607593;86;25919;-81
2021/10/23 03:36:08;;;;;;;11.05;2.33;;;;;;;6.33;78.25;100409.22;1629346;86;27930;-80
2021/10/23 03:38:35;;;;;;;8.55;2.50;;;;;;;6.36;77.81;100413.37;1669684;85;25809;-80
2021/10/23 03:41:02;;;;;;;6.05;2.40;;;;;;;6.36;78.09;100415.55;1609501;85;25348;-81
2021/10/23 03:43:29;;;;;;;9.83;3.05;;;;;;;6.36;78.08;100413.37;1654033;85;25905;-81
2021/10/23 03:45:56;;;;;;;5.72;2.22;;;;;;;6.36;77.98;100418.21;1674189;85;25921;-81
2021/10/23 03:48:23;;;;;;;6.67;2.65;;;;;;;6.36;77.89;100418.21;1679841;85;28178;-81
2021/10/23 03:50:50;;;;;;;3.25;2.10;;;;;;;6.35;77.71;100419.71;1634075;85;25954;-81
2021/10/23 03:53:17;;;;;;;5.87;2.33;;;;;;;6.33;77.92;100414.53;1652653;85;26151;-80
2021/10/23 03:55:44;;;;;;;8.08;2.45;;;;;;;6.30;77.99;100422.86;1679474;84;25839;-81
2021/10/23 03:58:11;;;;;;;10.65;2.02;;;;;;;6.27;78.11;100423.17;1656187;85;25870;-80
2021/10/23 04:00:39;;;;;;;5.80;2.30;;;;;;;6.26;78.04;100430.00;1608085;85;28196;-81
2021/10/23 04:03:06;;;;;;;7.85;3.15;;;;;;;6.24;78.05;100432.83;1656351;85;26351;-80
2021/10/23 04:05:33;;;;;;;9.25;2.37;;;;;;;6.23;78.22;100441.30;1679645;85;25820;-81
2021/10/23 04:08:01;;;;;;;10.53;2.60;;;;;;;6.26;78.61;100454.77;1676398;85;26243;-81
2021/10/23 04:10:28;;;;;;;5.33;2.58;;;;;;;6.28;78.63;100465.24;1633134;85;25820;-81
2021/10/23 04:12:55;;;;;;;5.90;2.52;;;;;;;6.30;78.57;100451.28;1656529;85;28284;-81
2021/10/23 04:15:22;;;;;;;5.17;2.72;;;;;;;6.34;78.85;100456.61;1679530;85;25834;-81
2021/10/23 04:17:50;;;;;;;10.70;2.87;;;;;;;6.35;78.59;100460.95;1679973;85;25748;-81
2021/10/23 04:20:18;;;;;;;6.90;2.80;;;;;;;6.38;78.62;100467.25;1633995;85;26060;-80
2021/10/23 04:22:45;;;;;;;8.58;2.92;;;;;;;6.41;78.61;100465.61;1648091;85;26005;-81
2021/10/23 04:25:14;;;;;;;7.20;2.60;;;;;;;6.43;78.42;100464.45;1647708;85;27503;-82
2021/10/23 04:27:41;;;;;;;10.23;2.90;;;;;;;6.43;78.28;100472.44;1665445;85;25870;-80
2021/10/23 04:30:09;;;;;;;7.90;3.17;;;;;;;6.45;78.38;100470.45;1604040;85;26571;-81
2021/10/23 04:32:36;;;;;;;8.78;2.80;;;;;;;6.46;78.43;100466.77;1647834;85;26508;-81
2021/10/23 04:35:03;;;;;;;6.58;2.95;;;;;;;6.47;78.21;100480.42;1652605;85;26666;-82
2021/10/23 04:37:31;;;;;;;10.65;3.35;;;;;;;6.49;78.18;100479.77;1652151;85;27423;-81
2021/10/23 04:39:58;;;;;;;10.48;3.02;;;;;;;6.51;78.04;100475.11;1673342;85;25856;-81
2021/10/23 04:42:26;;;;;;;9.23;3.02;;;;;;;6.53;78.06;100485.58;1625937;85;25892;-81
2021/10/23 04:44:53;;;;;;;8.43;2.75;;;;;;;6.56;77.96;100493.25;1648368;85;25763;-81
2021/10/23 04:47:20;;;;;;;5.75;2.87;;;;;;;6.56;77.83;100483.94;1651526;85;26035;-81
2021/10/23 04:49:47;;;;;;;6.47;3.00;;;;;;;6.58;77.85;100497.91;1673132;84;27624;-81
2021/10/23 04:52:14;;;;;;;6.47;3.27;;;;;;;6.60;77.91;100498.08;1632400;84;25977;-81
2021/10/23 04:54:41;;;;;;;11.30;4.35;;;;;;;6.61;77.85;100502.39;1623990;85;25940;-80
2021/10/23 04:57:08;;;;;;;10.25;3.77;;;;;;;6.63;77.84;100511.56;1626113;85;26445;-81
2021/10/23 04:59:35;;;;;;;8.95;3.10;;;;;;;6.63;78.03;100496.41;1673818;85;25919;-82
2021/10/23 05:02:02;;;;;;;8.25;3.45;;;;;;;6.63;77.90;100512.89;1626614;84;28211;-81
2021/10/23 05:04:29;;;;;;;14.55;3.12;;;;;;;6.64;77.91;100515.88;1625217;85;25877;-81
2021/10/23 05:06:56;;;;;;;9.20;4.30;;;;;;;6.65;77.95;100517.56;1647331;85;25598;-81
2021/10/23 05:09:24;;;;;;;8.63;3.37;;;;;;;6.66;77.97;100525.86;1674071;84;25884;-81
2021/10/23 05:11:51;;;;;;;9.23;3.67;;;;;;;6.65;77.93;100530.34;1626021;85;26018;-81
2021/10/23 05:14:19;;;;;;;13.60;4.83;;;;;;;6.66;77.83;100525.86;1648533;85;27489;-81
2021/10/23 05:16:46;;;;;;;8.05;3.15;;;;;;;6.66;77.96;100521.87;1595737;86;26162;-81
2021/10/23 05:19:13;;;;;;;8.08;3.00;;;;;;;6.68;78.06;100529.19;1673390;84;25772;-82
2021/10/23 05:21:40;;;;;;;9.50;4.33;;;;;;;6.68;78.25;100529.19;1627253;84;25954;-82
2021/10/23 05:24:07;;;;;;;11.00;3.52;;;;;;;6.67;78.14;100537.66;1650655;85;25926;-81
2021/10/23 05:26:34;;;;;;;13.58;4.05;;;;;;;6.69;78.03;100540.19;1647927;85;28118;-81
2021/10/23 05:29:01;;;;;;;9.65;3.30;;;;;;;6.69;78.33;100543.66;1674700;84;26450;-81
2021/10/23 05:31:31;;;;;;;9.25;3.77;;;;;;;6.69;78.05;100541.52;1601452;86;25922;-81
2021/10/23 05:33:59;;;;;;;14.70;4.13;;;;;;;6.69;78.49;100548.17;1624508;85;25919;-81
2021/10/23 05:36:25;;;;;;;10.48;3.72;;;;;;;6.69;78.37;100554.83;1671083;84;25934;-81
2021/10/23 05:38:52;;;;;;;13.53;3.98;;;;;;;6.70;78.32;100553.81;1677299;84;27599;-81
2021/10/23 05:41:19;;;;;;;11.93;3.60;;;;;;;6.70;78.47;100556.47;1626433;85;25767;-80
2021/10/23 05:43:46;;;;;;;5.35;3.05;;;;;;;6.70;78.61;100565.30;1649482;85;25950;-81
2021/10/23 05:46:13;;;;;;;7.58;3.47;;;;;;;6.69;78.69;100571.60;1647348;85;26170;-80
2021/10/23 05:48:40;;;;;;;10.35;3.80;;;;;;;6.69;78.52;100570.27;1674630;84;25790;-81
2021/10/23 05:51:07;;;;;;;12.43;3.60;;;;;;;6.71;78.50;100584.77;1647293;85;28666;-82
2021/10/23 05:53:35;;;;;;;8.95;3.37;;;;;;;6.71;78.57;100581.62;1647216;85;25906;-81
2021/10/23 05:56:02;;;;;;;6.37;3.15;;;;;;;6.72;78.74;100589.92;1625902;85;26131;-81
2021/10/23 05:58:30;;;;;;;8.55;2.80;;;;;;;6.72;78.55;100589.09;1636201;86;26641;-81
2021/10/23 06:01:06;;;;;;;9.90;3.33;;;;;;;6.73;78.92;100581.45;1600237;84;25839;-82
2021/10/23 06:03:29;;;;;;;10.63;3.55;;;;;;;6.72;78.71;100589.09;1623773;85;27738;-81
2021/10/23 06:05:57;;;;;;;13.58;4.60;;;;;;;6.72;78.74;100596.58;1647661;85;25943;-81
2021/10/23 06:08:24;;;;;;;7.00;2.98;;;;;;;6.74;78.67;100587.09;1673434;85;25837;-81
2021/10/23 06:10:51;;;;;;;9.88;3.35;;;;;;;6.75;78.73;100594.94;1626332;85;25850;-81
2021/10/23 06:13:19;;;;;;;9.18;3.02;;;;;;;6.75;78.65;100594.94;1648733;85;25766;-81
2021/10/23 06:15:46;;;;;;;9.73;4.22;;;;;;;6.76;78.83;100590.42;1625598;85;27512;-80
2021/10/23 06:18:13;;;;;;;13.18;3.58;;;;;;;6.78;78.73;100599.08;1647698;85;25886;-81
2021/10/23 06:20:40;;;;;;;11.78;3.85;;;;;;;6.80;78.98;100595.78;1648302;85;26270;-81
2021/10/23 06:23:07;;;;;;;10.78;3.65;;;;;;;6.80;78.82;100601.92;1623603;85;26848;-81
2021/10/23 06:25:34;;;;;;;8.35;3.20;;;;;;;6.83;78.68;100602.09;1647906;85;25781;-81
2021/10/23 06:28:01;;;;;;;11.55;3.42;;;;;;;6.85;78.75;100600.95;1672871;85;27147;-81
2021/10/23 06:30:28;;;;;;;10.78;3.70;;;;;;;6.87;78.86;100607.42;1626347;85;26015;-82
2021/10/23 06:32:57;;;;;;;15.78;4.20;;;;;;;6.88;78.60;100607.28;1647773;85;25815;-81
2021/10/23 06:35:26;;;;;;;7.25;3.12;;;;;;;6.90;78.52;100607.12;1625838;85;25831;-82
2021/10/23 06:37:53;;;;;;;11.18;3.60;;;;;;;6.92;78.38;100614.44;1646528;85;26099;-81
2021/10/23 06:40:21;;;;;;;11.48;3.92;;;;;;;6.93;78.24;100616.93;1664675;85;27659;-81
2021/10/23 06:42:49;;;;;;;14.07;3.98;;;;;;;6.95;78.25;100618.93;1605463;86;26031;-81
2021/10/23 06:45:17;;;;;;;14.78;3.72;;;;;;;6.98;78.27;100621.28;1605003;86;25911;-81
2021/10/23 06:47:44;;;;;;;8.73;3.35;;;;;;;7.00;78.17;100621.95;1625740;86;26180;-81
2021/10/23 06:50:13;;;;;;;11.00;3.67;;;;;;;7.02;78.10;100625.77;1598646;87;26467;-81
2021/10/23 06:52:40;;;;;;;10.00;3.22;;;;;;;7.03;78.01;100631.45;1615322;87;27603;-81
2021/10/23 06:55:08;;;;;;;13.10;3.12;;;;;;;7.05;78.05;100632.12;1641670;86;25964;-81
2021/10/23 06:57:35;;;;;;;9.08;2.92;;;;;;;7.05;77.86;100640.59;1619673;87;25951;-81
2021/10/23 07:00:05;;;;;;;10.10;3.62;;;;;;;7.08;77.99;100637.63;1642552;87;25782;-81
2021/10/23 07:02:41;;;;;;;10.30;3.08;;;;;;;7.09;77.94;100639.27;1617591;87;26630;-80
2021/10/23 07:05:17;;;;;;;11.93;3.80;;;;;;;7.11;77.91;100650.59;1596418;87;27636;-79
2021/10/23 07:07:44;;;;;;;9.40;3.20;;;;;;;7.10;77.91;100647.61;1642325;87;26157;-81
2021/10/23 07:10:12;;;;;;;9.93;3.55;;;;;;;7.11;77.98;100648.77;1598858;87;25871;-80
2021/10/23 07:12:40;;;;;;;13.65;3.50;;;;;;;7.09;77.84;100652.09;1641022;86;26619;-80
2021/10/23 07:15:08;;;;;;;10.85;5.65;;;;;;;7.09;77.86;100656.59;1644140;86;26757;-81
2021/10/23 07:17:35;;;;;;;16.62;4.90;;;;;;;7.11;77.90;100659.92;1640977;85;27489;-82
2021/10/23 07:20:04;;;;;;;66.20;30.62;;;;;;;7.12;77.95;100664.27;1619925;86;26619;-80
2021/10/23 07:22:31;;;;;;;17.23;6.90;;;;;;;7.13;77.92;100667.24;1596631;87;25932;-81
2021/10/23 07:24:58;;;;;;;17.37;5.08;;;;;;;7.11;77.76;100670.08;1621820;86;26133;-82
2021/10/23 07:27:25;;;;;;;9.98;3.87;;;;;;;7.12;77.83;100679.72;1662646;86;25848;-81
2021/10/23 07:29:52;;;;;;;15.08;4.15;;;;;;;7.15;77.99;100675.91;1615460;87;27637;-81
2021/10/23 07:32:19;;;;;;;12.47;4.20;;;;;;;7.19;77.94;100681.23;1619149;86;25894;-81
2021/10/23 07:34:46;;;;;;;13.80;4.60;;;;;;;7.19;78.00;100676.75;1625156;85;25840;-81
2021/10/23 07:37:13;;;;;;;13.72;3.60;;;;;;;7.22;77.82;100683.59;1670198;84;25568;-81
2021/10/23 07:39:40;;;;;;;9.70;4.05;;;;;;;7.26;77.81;100691.59;1634555;85;26692;-81
2021/10/23 07:42:08;;;;;;;10.32;3.27;;;;;;;7.28;77.66;100697.59;1650334;84;27665;-81
2021/10/23 07:44:35;;;;;;;12.43;3.77;;;;;;;7.29;77.79;100685.42;1627573;85;25882;-81
2021/10/23 07:47:02;;;;;;;11.88;3.87;;;;;;;7.31;77.61;100693.27;1679917;84;26013;-81
2021/10/23 08:13:42;;;;;;;11.35;4.87;;;;;;;7.88;75.37;100719.00;1816180;77;26286;-81
2021/10/23 08:16:09;;;;;;;17.17;4.90;;;;;;;7.74;75.76;100711.14;1729000;80;25950;-81
2021/10/23 08:18:36;;;;;;;21.45;8.50;;;;;;;7.69;76.13;100718.83;1679911;80;27366;-81
2021/10/23 08:21:04;;;;;;;14.90;7.33;;;;;;;7.65;75.97;100731.31;1710582;82;25939;-80
2021/10/23 08:23:31;;;;;;;13.48;5.35;;;;;;;7.63;76.26;100724.79;1720713;83;25734;-80
2021/10/23 08:25:58;;;;;;;11.05;4.47;;;;;;;7.64;76.14;100740.30;1680595;83;26014;-81
2021/10/23 08:28:25;;;;;;;15.28;7.53;;;;;;;7.61;76.11;100737.45;1630568;83;25840;-81
2021/10/23 08:30:53;;;;;;;11.25;4.42;;;;;;;7.62;76.28;100742.30;1739514;81;27496;-80
2021/10/23 08:33:19;;;;;;;14.03;4.25;;;;;;;7.66;76.24;100748.96;1739408;81;26062;-80
2021/10/23 08:35:46;;;;;;;19.98;6.10;;;;;;;7.67;76.39;100754.16;1713555;81;26382;-80
2021/10/23 08:38:13;;;;;;;17.20;4.80;;;;;;;7.69;75.95;100757.98;1674731;81;25968;-80
2021/10/23 08:40:41;;;;;;;14.00;4.15;;;;;;;7.69;76.04;100768.15;1719641;81;25742;-80
2021/10/23 08:43:08;;;;;;;15.70;4.83;;;;;;;7.70;75.79;100763.63;1714897;81;27415;-80
2021/10/23 08:45:38;;;;;;;14.00;4.10;;;;;;;7.72;75.99;100768.30;1715885;81;25825;-80
2021/10/23 08:48:07;;;;;;;18.07;6.28;;;;;;;7.75;75.92;100773.31;1665610;81;26016;-80
2021/10/23 08:50:35;;;;;;;14.50;6.20;;;;;;;7.77;75.92;100773.48;1715843;81;25815;-80
2021/10/23 08:53:03;;;;;;;12.07;5.53;;;;;;;7.82;75.96;100773.49;1734642;81;25890;-80
2021/10/23 08:55:31;;;;;;;15.38;5.83;;;;;;;7.84;75.56;100770.16;1711061;81;27647;-80
2021/10/23 08:57:58;;;;;;;14.73;5.37;;;;;;;7.86;75.45;100774.83;1687849;81;26235;-81
2021/10/23 09:00:25;;;;;;;17.20;6.67;;;;;;;7.87;75.09;100773.84;1732894;81;25718;-81
2021/10/23 09:02:52;;;;;;;12.70;3.80;;;;;;;7.87;75.25;100779.98;1732063;80;25791;-81
2021/10/23 09:05:22;;;;;;;11.78;4.03;;;;;;;7.89;75.18;100777.17;1715560;81;26151;-82
2021/10/23 09:07:51;;;;;;;17.05;5.03;;;;;;;7.89;74.84;100796.66;1685317;81;28186;-82
2021/10/23 09:10:30;;;;;;;11.35;3.65;;;;;;;7.91;74.94;100800.52;1743713;80;25946;-81
2021/10/23 09:13:08;;;;;;;13.50;4.03;;;;;;;7.94;75.06;100801.50;1745934;80;25801;-81
2021/10/23 09:15:41;;;;;;;12.45;3.87;;;;;;;7.97;74.46;100792.69;1707514;82;25769;-81
2021/10/23 09:18:09;;;;;;;13.08;3.77;;;;;;;8.00;74.52;100800.86;1713567;81;25817;-81
2021/10/23 09:20:40;;;;;;;11.70;3.55;;;;;;;8.05;74.73;100805.19;1751306;81;27433;-81
2021/10/23 09:23:17;;;;;;;7.97;3.10;;;;;;;8.11;74.74;100809.36;1750240;81;25852;-81
2021/10/23 09:25:51;;;;;;;13.35;3.47;;;;;;;8.19;74.61;100817.36;1710778;81;25973;-81
2021/10/23 09:28:31;;;;;;;10.80;3.17;;;;;;;8.26;74.46;100809.56;1734275;81;25942;-81
2021/10/23 09:30:58;;;;;;;11.70;4.17;;;;;;;8.31;74.29;100820.58;1750637;81;32457;-81
2021/10/23 09:33:31;;;;;;;13.03;3.67;;;;;;;8.34;73.45;100805.06;1743223;81;28271;-83
2021/10/23 09:36:03;;;;;;;11.53;4.15;;;;;;;8.36;73.49;100816.40;1733289;81;25399;-81
2021/10/23 09:38:31;;;;;;;9.35;3.08;;;;;;;8.38;73.54;100825.59;1698693;82;25856;-81
2021/10/23 09:41:13;;;;;;;34.67;16.35;;;;;;;8.43;73.34;100813.89;1729406;82;25832;-80
2021/10/23 09:43:40;;;;;;;20.08;9.93;;;;;;;8.48;73.47;100822.25;1756868;80;25747;-81
2021/10/23 09:46:12;;;;;;;17.80;6.05;;;;;;;8.55;73.38;100823.25;1680551;81;27580;-82
2021/10/23 09:48:48;;;;;;;11.85;3.50;;;;;;;8.59;72.50;100825.08;1694253;81;25322;-81
2021/10/23 09:51:27;;;;;;;9.90;4.65;;;;;;;8.64;72.48;100828.89;1756008;80;25874;-81
2021/10/23 09:53:59;;;;;;;13.10;4.53;;;;;;;8.69;72.54;100836.41;1746373;81;26475;-81
2021/10/23 09:56:35;;;;;;;16.57;4.65;;;;;;;8.69;72.04;100829.73;1689013;81;25938;-81
2021/10/23 09:59:11;;;;;;;10.18;4.33;;;;;;;8.63;72.08;100844.59;1697078;82;27562;-80
2021/10/23 10:01:44;;;;;;;11.33;4.08;;;;;;;8.60;72.37;100832.09;1725188;82;25881;-81
2021/10/23 10:04:14;;;;;;;14.50;4.58;;;;;;;8.57;72.24;100837.76;1755991;80;25895;-80
2021/10/23 10:06:49;;;;;;;18.60;6.00;;;;;;;8.54;72.02;100838.92;1697223;81;25862;-81
2021/10/23 10:09:20;;;;;;;12.05;4.65;;;;;;;8.46;71.84;100845.11;1705116;81;25838;-81
2021/10/23 10:11:48;;;;;;;;;;;;;;;8.43;72.56;100843.26;1759213;81;28493;-82
2021/10/23 10:14:23;;;;;;;13.28;5.83;;;;;;;8.46;72.81;100841.60;1716990;81;26054;-81
2021/10/23 10:16:52;;;;;;;25.25;12.85;;;;;;;8.43;72.13;100838.77;1716256;82;25824;-81
2021/10/23 10:19:19;;;;;;;30.97;16.70;;;;;;;8.43;72.13;100844.59;1694433;82;25877;-81
2021/10/23 10:21:51;;;;;;;14.60;5.42;;;;;;;8.44;72.33;100854.28;1727711;81;25931;-82
2021/10/23 10:24:26;;;;;;;15.68;5.20;;;;;;;8.45;72.02;100862.61;1689240;82;28187;-81
2021/10/23 10:27:03;;;;;;;17.62;4.55;;;;;;;8.47;72.21;100859.27;1694394;82;26463;-81
2021/10/23 10:29:55;;;;;;;16.02;5.20;;;;;;;8.49;72.06;100861.27;1694505;82;25845;-81
2021/10/23 10:32:37;;;;;;;15.95;6.05;;;;;;;8.51;72.30;100864.11;1726105;81;25827;-81
2021/10/23 10:42:41;;;;;;;12.75;4.00;;;;;;;8.58;72.55;100862.95;1694807;82;26016;-81
2021/10/23 10:43:19;;;;;;;11.45;3.77;;;;;;;8.65;72.06;100865.29;1722760;81;25839;-80
2021/10/23 10:45:55;;;;;;;17.73;4.15;;;;;;;8.71;71.89;100876.63;1696620;82;26556;-81
2021/10/23 10:48:34;;;;;;;12.35;3.72;;;;;;;8.72;71.00;100869.46;1721176;81;25855;-81
2021/10/23 10:51:14;;;;;;;11.12;4.33;;;;;;;8.71;71.24;100882.47;1694214;82;27439;-81
2021/10/23 10:53:55;;;;;;;11.45;3.50;;;;;;;8.69;70.92;100877.80;1735063;81;26525;-81
2021/10/23 10:56:22;;;;;;;12.55;3.25;;;;;;;8.66;70.97;100878.96;1700768;83;25853;-81
2021/10/23 10:58:56;;;;;;;10.05;2.95;;;;;;;8.63;70.89;100891.33;1702411;80;25881;-82
2021/10/23 11:01:29;;;;;;;9.43;3.37;;;;;;;8.63;71.11;100891.82;1710835;81;25746;-81
2021/10/23 11:04:05;;;;;;;16.65;3.40;;;;;;;8.63;72.03;100892.66;1746876;80;28204;-81
2021/10/23 11:06:37;;;;;;;13.98;4.47;;;;;;;8.65;72.02;100893.82;1722293;81;25816;-81
2021/10/23 11:09:19;;;;;;;20.25;7.05;;;;;;;8.64;71.76;100904.19;1739785;81;26418;-81
2021/10/23 11:11:59;;;;;;;15.43;5.87;;;;;;;8.63;71.48;100895.83;1716876;80;25836;-82
2021/10/23 11:14:37;;;;;;;20.55;7.30;;;;;;;8.64;71.50;100898.84;1680016;84;26282;-81
2021/10/23 11:17:13;;;;;;;45.50;22.32;;;;;;;8.63;71.31;100906.02;1668802;83;28337;-82
2021/10/23 11:34:28;;;;;;;16.48;5.35;;;;;;;9.15;69.71;100921.98;1837181;76;26213;-81
2021/10/23 11:37:12;;;;;;;17.63;6.13;;;;;;;8.94;69.74;100924.87;1700750;80;25839;-81
2021/10/23 11:39:43;;;;;;;14.55;4.92;;;;;;;8.84;70.50;100931.72;1660858;82;27996;-81
2021/10/23 11:42:30;;;;;;;15.60;6.55;;;;;;;8.80;70.75;100930.88;1736735;80;25847;-80
2021/10/23 11:45:07;;;;;;;12.55;5.87;;;;;;;8.75;70.90;100923.36;1747553;80;26357;-81
2021/10/23 11:47:34;;;;;;;15.60;5.20;;;;;;;8.73;71.32;100937.88;1749256;80;26492;-81
2021/10/23 11:50:05;;;;;;;16.65;5.37;;;;;;;8.70;71.50;100939.08;1660138;82;26000;-80
2021/10/23 11:52:34;;;;;;;11.08;3.83;;;;;;;8.70;71.28;100932.40;1727167;82;27514;-81
2021/10/23 11:55:01;;;;;;;22.40;12.10;;;;;;;8.69;71.44;100944.55;1688129;82;25793;-81
2021/10/23 11:57:45;;;;;;;24.05;8.75;;;;;;;8.68;71.52;100945.08;1661632;82;25775;-81
2021/10/23 12:00:20;;;;;;;16.17;7.95;;;;;;;8.66;71.62;100949.72;1704462;82;26437;-80
2021/10/23 12:02:58;;;;;;;14.13;5.28;;;;;;;8.63;72.38;100943.40;1728826;82;26393;-81
2021/10/23 12:05:48;;;;;;;13.55;5.58;;;;;;;8.58;72.65;100957.73;1716158;82;28215;-80
2021/10/23 12:08:29;;;;;;;12.75;4.67;;;;;;;8.53;73.38;100956.89;1688315;82;26478;-80
2021/10/23 12:11:18;;;;;;;20.55;4.58;;;;;;;8.49;73.34;100964.05;1657286;82;26003;-80
2021/10/23 12:14:11;;;;;;;15.65;5.25;;;;;;;8.47;73.47;100953.55;1729093;81;25890;-80
2021/10/23 12:16:48;;;;;;;14.83;5.60;;;;;;;8.50;73.83;100957.23;1732593;82;25716;-81
2021/10/23 12:19:20;;;;;;;18.17;8.78;;;;;;;8.59;73.82;100966.09;1699581;82;27644;-82
2021/10/23 12:21:55;;;;;;;20.20;5.15;;;;;;;8.65;73.45;100961.91;1668071;82;25367;-82
2021/10/23 12:24:38;;;;;;;18.27;7.83;;;;;;;8.70;73.08;100953.77;1722010;82;25851;-81